Time;durP1;ratioP1;P1;durP2;ratioP2;P2;SDS_P1;SDS_P2;PMS_P1;PMS_P2;Temp;Humidity;BMP_temperature;BMP_pressure;BME280_temperature;BME280_humidity;BME280_pressure;Samples;Min_cycle;Max_cycle;Signal;HPM_P1;HPM_P2
2021/09/28 00:01:47;;;;;;;62.50;58.20;;;;;;;17.02;100.00;101262.59;4976584;28;20054;-80
2021/09/28 00:04:13;;;;;;;62.88;58.38;;;;;;;16.93;100.00;101254.09;4976763;28;20050;-79
2021/09/28 00:06:42;;;;;;;65.82;61.00;;;;;;;16.91;100.00;101258.06;4977487;28;20046;-79
2021/09/28 00:09:08;;;;;;;61.08;56.78;;;;;;;16.86;100.00;101257.97;4976793;28;20050;-79
2021/09/28 00:11:35;;;;;;;64.07;59.58;;;;;;;16.88;100.00;101258.53;4976272;28;20121;-81
2021/09/28 00:14:02;;;;;;;64.75;60.22;;;;;;;16.87;100.00;101260.41;4976529;28;20373;-79
2021/09/28 00:16:29;;;;;;;62.90;58.35;;;;;;;16.76;100.00;101257.72;4977568;28;20080;-80
2021/09/28 00:18:58;;;;;;;66.40;61.70;;;;;;;16.80;100.00;101256.22;4976680;28;20058;-79
2021/09/28 00:21:25;;;;;;;68.88;64.10;;;;;;;16.74;100.00;101257.13;4976237;28;20061;-78
2021/09/28 00:23:53;;;;;;;64.85;60.35;;;;;;;16.68;100.00;101265.03;4976004;28;20471;-80
2021/09/28 00:26:20;;;;;;;65.10;60.28;;;;;;;16.75;100.00;101256.06;4976150;28;20055;-79
2021/09/28 00:28:47;;;;;;;63.55;58.85;;;;;;;16.65;100.00;101262.03;4976005;28;20480;-80
2021/09/28 00:31:13;;;;;;;75.55;70.28;;;;;;;16.69;100.00;101268.53;4975883;28;20055;-80
2021/09/28 00:33:40;;;;;;;73.03;67.88;;;;;;;16.69;100.00;101263.19;4975871;28;20042;-79
2021/09/28 00:36:07;;;;;;;67.30;62.50;;;;;;;16.70;100.00;101267.47;4977238;28;20062;-80
2021/09/28 00:38:34;;;;;;;72.10;67.28;;;;;;;16.75;100.00;101278.34;4975960;28;20047;-79
2021/09/28 00:41:02;;;;;;;68.10;63.72;;;;;;;16.70;100.00;101268.31;4976099;28;20051;-80
2021/09/28 00:43:44;;;;;;;74.05;69.55;;;;;;;16.71;100.00;101274.50;4976155;28;20121;-79
2021/09/28 00:46:11;;;;;;;76.13;71.53;;;;;;;16.70;100.00;101273.69;4967635;28;20050;-80
2021/09/28 00:48:38;;;;;;;72.20;67.65;;;;;;;16.59;100.00;101271.00;4975879;28;20439;-77
2021/09/28 00:51:05;;;;;;;64.00;59.60;;;;;;;16.60;100.00;101272.63;4976871;28;20054;-79
2021/09/28 00:53:32;;;;;;;63.15;58.85;;;;;;;16.56;100.00;101274.97;4975721;28;20051;-80
2021/09/28 00:55:59;;;;;;;73.53;69.00;;;;;;;16.40;100.00;101284.50;4974245;28;20483;-79
2021/09/28 00:58:27;;;;;;;64.50;60.17;;;;;;;16.18;100.00;101268.13;4975347;28;20057;-79
2021/09/28 01:00:54;;;;;;;66.38;62.00;;;;;;;16.14;100.00;101268.81;4975591;28;20102;-78
2021/09/28 01:03:21;;;;;;;73.57;68.78;;;;;;;16.07;100.00;101276.13;4975090;28;20822;-79
2021/09/28 01:05:48;;;;;;;63.60;58.95;;;;;;;15.99;100.00;101279.97;4976665;28;20054;-79
2021/09/28 01:08:15;;;;;;;73.18;67.72;;;;;;;15.99;100.00;101283.44;4975835;28;20050;-79
2021/09/28 01:10:41;;;;;;;72.35;67.00;;;;;;;15.99;100.00;101279.97;4975258;28;20050;-78
2021/09/28 01:13:08;;;;;;;74.90;69.32;;;;;;;15.75;100.00;101277.19;4975202;28;20054;-83
2021/09/28 01:15:36;;;;;;;72.10;66.75;;;;;;;15.64;100.00;101288.63;4976114;28;20058;-79
2021/09/28 01:18:03;;;;;;;71.85;66.60;;;;;;;15.66;100.00;101280.38;4975364;28;20085;-78
2021/09/28 01:20:30;;;;;;;84.60;78.75;;;;;;;15.54;100.00;101291.84;4975228;28;20043;-79
2021/09/28 01:22:58;;;;;;;78.55;73.15;;;;;;;15.54;100.00;101291.03;4975127;28;20133;-78
2021/09/28 01:25:25;;;;;;;93.88;87.70;;;;;;;15.45;100.00;101282.47;4974872;28;20059;-79
2021/09/28 01:27:52;;;;;;;80.20;74.70;;;;;;;15.40;100.00;101285.03;4975173;28;20046;-79
2021/09/28 01:30:18;;;;;;;92.35;86.15;;;;;;;15.42;100.00;101282.94;4976092;28;20046;-79
2021/09/28 01:32:45;;;;;;;86.90;80.50;;;;;;;15.46;100.00;101277.94;4974716;28;20047;-80
2021/09/28 01:35:12;;;;;;;90.05;83.85;;;;;;;15.44;100.00;101290.75;4975208;28;20118;-78
2021/09/28 01:37:39;;;;;;;92.28;86.10;;;;;;;15.42;100.00;101282.13;4975244;28;20050;-79
2021/09/28 01:40:08;;;;;;;84.10;77.88;;;;;;;15.41;100.00;101283.97;4974945;28;20054;-80
2021/09/28 01:42:35;;;;;;;75.20;69.80;;;;;;;15.47;100.00;101283.06;4974983;28;20042;-80
2021/09/28 01:45:01;;;;;;;80.05;74.15;;;;;;;15.43;100.00;101287.25;4974727;28;20050;-79
2021/09/28 01:47:28;;;;;;;85.03;78.65;;;;;;;15.42;100.00;101290.13;4974819;28;20056;-79
2021/09/28 01:49:55;;;;;;;79.18;72.95;;;;;;;15.41;100.00;101297.38;4970385;28;20423;-79
2021/09/28 01:52:22;;;;;;;77.80;72.20;;;;;;;15.45;100.00;101290.50;4975328;28;20127;-78
2021/09/28 01:54:49;;;;;;;83.43;77.38;;;;;;;15.49;100.00;101290.88;4975197;28;20050;-79
2021/09/28 01:57:17;;;;;;;94.50;88.10;;;;;;;15.43;100.00;101291.75;4974458;28;20061;-79
2021/09/28 01:59:44;;;;;;;94.70;87.95;;;;;;;15.48;100.00;101290.06;4974374;28;20467;-79
2021/09/28 02:02:10;;;;;;;93.32;86.55;;;;;;;15.50;100.00;101287.97;5065346;23;20117;-78
2021/09/28 02:04:37;;;;;;;94.60;87.57;;;;;;;15.54;100.00;101291.84;4963897;28;20474;-79
2021/09/28 02:07:04;;;;;;;104.75;97.50;;;;;;;15.53;100.00;101290.22;4966799;28;20063;-80
2021/09/28 02:09:31;;;;;;;99.13;92.35;;;;;;;15.53;100.00;101284.84;4961316;28;20125;-79
2021/09/28 02:11:58;;;;;;;117.03;108.75;;;;;;;15.56;100.00;101283.59;4962888;28;20058;-80
2021/09/28 02:14:28;;;;;;;103.10;95.57;;;;;;;15.60;100.00;101284.78;4962713;28;20474;-80
2021/09/28 02:16:56;;;;;;;118.97;110.68;;;;;;;15.59;100.00;101283.16;4969169;28;20145;-80
2021/09/28 02:19:23;;;;;;;95.10;88.20;;;;;;;15.48;100.00;101292.72;4962943;28;20054;-79
2021/09/28 02:21:49;;;;;;;106.50;98.65;;;;;;;15.54;100.00;101296.38;4965573;28;20542;-79
2021/09/28 02:24:16;;;;;;;100.35;92.60;;;;;;;15.60;100.00;101300.84;4962651;28;20451;-80
2021/09/28 02:26:43;;;;;;;92.03;85.03;;;;;;;15.55;100.00;101293.50;4963074;28;20058;-80
2021/09/28 02:29:11;;;;;;;94.03;87.13;;;;;;;15.49;100.00;101294.38;4961979;28;20046;-78
2021/09/28 02:31:39;;;;;;;86.70;79.75;;;;;;;15.45;100.00;101292.38;4960547;28;20039;-79
2021/09/28 02:34:09;;;;;;;86.28;79.50;;;;;;;15.42;100.00;101293.63;4960874;28;20630;-81
2021/09/28 02:36:36;;;;;;;99.07;91.40;;;;;;;15.48;100.00;101300.75;4964548;28;20065;-79
2021/09/28 02:39:08;;;;;;;96.32;89.05;;;;;;;15.40;100.00;101285.03;4964857;28;20080;-79
2021/09/28 02:41:35;;;;;;;90.25;83.63;;;;;;;15.39;100.00;101287.91;4962989;28;20058;-79
2021/09/28 02:44:03;;;;;;;93.53;86.72;;;;;;;15.39;100.00;101282.56;4962350;28;20117;-78
2021/09/28 02:46:31;;;;;;;125.78;117.30;;;;;;;15.35;100.00;101283.00;4962726;28;20051;-79
2021/09/28 02:49:00;;;;;;;111.03;103.13;;;;;;;15.39;100.00;101278.03;4961779;28;20061;-78
2021/09/28 02:51:26;;;;;;;119.50;111.65;;;;;;;15.48;100.00;101290.06;4964666;28;20058;-78
2021/09/28 02:53:54;;;;;;;109.05;101.35;;;;;;;15.46;100.00;101285.97;4965558;28;20060;-80
2021/09/28 02:56:21;;;;;;;112.05;103.88;;;;;;;15.51;100.00;101278.91;4962309;28;20121;-79
2021/09/28 02:58:48;;;;;;;118.88;110.38;;;;;;;15.53;100.00;101282.19;4962448;28;20117;-80
2021/09/28 03:01:15;;;;;;;122.15;113.63;;;;;;;15.57;100.00;101287.91;4960799;28;20430;-80
2021/09/28 03:03:42;;;;;;;128.82;120.18;;;;;;;15.63;100.00;101292.34;4960143;28;20059;-78
2021/09/28 03:06:10;;;;;;;131.35;122.68;;;;;;;15.79;100.00;101288.25;4964469;28;20062;-79
2021/09/28 03:08:37;;;;;;;111.40;103.50;;;;;;;15.73;100.00;101297.19;4967271;28;20121;-79
2021/09/28 03:11:03;;;;;;;106.05;98.07;;;;;;;15.69;100.00;101302.19;4962383;28;20043;-79
2021/09/28 03:13:30;;;;;;;102.97;95.40;;;;;;;15.84;100.00;101306.34;4965005;28;20043;-79
2021/09/28 03:15:57;;;;;;;99.32;92.45;;;;;;;15.75;100.00;101300.47;4964504;28;20055;-78
2021/09/28 03:18:24;;;;;;;107.30;100.07;;;;;;;15.82;100.00;101300.38;4965220;28;20055;-80
2021/09/28 03:20:50;;;;;;;108.60;100.70;;;;;;;15.71;100.00;101296.63;4966081;28;20412;-78
2021/09/28 03:23:19;;;;;;;92.57;86.03;;;;;;;15.76;100.00;101297.59;4967313;28;20058;-80
2021/09/28 03:25:46;;;;;;;94.78;87.57;;;;;;;15.77;100.00;101306.44;4964591;28;20460;-79
2021/09/28 03:28:15;;;;;;;99.85;92.07;;;;;;;15.73;100.00;101302.56;4964534;28;20061;-79
2021/09/28 03:30:42;;;;;;;109.53;101.93;;;;;;;15.83;100.00;101304.72;4965472;28;20051;-80
2021/09/28 03:33:08;;;;;;;103.88;96.85;;;;;;;15.82;100.00;101298.50;4965480;28;20121;-79
2021/09/28 03:35:35;;;;;;;97.60;90.00;;;;;;;15.86;100.00;101304.25;4965621;28;20062;-79
2021/09/28 03:38:02;;;;;;;95.82;89.05;;;;;;;15.79;100.00;101302.50;4972878;28;20128;-81
2021/09/28 03:40:30;;;;;;;99.47;92.78;;;;;;;15.75;100.00;101301.28;4964691;28;20536;-78
2021/09/28 03:42:57;;;;;;;98.78;91.38;;;;;;;15.83;100.00;101296.69;4965880;28;20451;-78
2021/09/28 03:45:24;;;;;;;99.43;91.82;;;;;;;15.84;100.00;101298.31;4964623;28;20066;-79
2021/09/28 03:47:51;;;;;;;109.72;101.85;;;;;;;15.87;100.00;101297.84;4965261;28;20047;-80
2021/09/28 03:50:18;;;;;;;103.78;96.22;;;;;;;15.90;100.00;101294.72;4964235;28;20059;-79
2021/09/28 03:52:45;;;;;;;94.32;87.13;;;;;;;15.96;100.00;101291.13;4973106;28;20055;-80
2021/09/28 03:55:14;;;;;;;90.95;84.05;;;;;;;16.01;100.00;101294.75;4966889;28;20051;-80
2021/09/28 03:57:42;;;;;;;88.13;81.32;;;;;;;16.02;100.00;101283.00;4967571;28;20121;-81
2021/09/28 04:00:10;;;;;;;97.38;89.90;;;;;;;15.98;100.00;101283.69;4961884;28;20059;-80
2021/09/28 04:02:37;;;;;;;107.15;99.28;;;;;;;16.02;100.00;101284.84;4965109;28;20051;-81
2021/09/28 04:05:04;;;;;;;110.93;102.13;;;;;;;16.05;100.00;101281.72;4973136;28;20065;-79
2021/09/28 04:07:30;;;;;;;119.60;111.10;;;;;;;16.02;100.00;101284.84;4963799;28;20059;-78
2021/09/28 04:10:00;;;;;;;97.07;90.10;;;;;;;16.10;100.00;101281.06;4967018;28;20495;-81
2021/09/28 04:12:27;;;;;;;97.90;89.97;;;;;;;16.18;100.00;101280.72;4970998;28;20082;-78
2021/09/28 04:14:57;;;;;;;94.28;87.18;;;;;;;16.17;100.00;101284.44;4965254;28;20072;-77
2021/09/28 04:17:24;;;;;;;102.28;94.93;;;;;;;16.18;100.00;101281.53;4971961;28;20058;-78
2021/09/28 04:19:51;;;;;;;103.30;96.60;;;;;;;16.15;100.00;101289.19;4963943;28;20051;-77
2021/09/28 04:22:18;;;;;;;94.47;87.95;;;;;;;16.17;100.00;101279.91;4966634;28;20063;-79
2021/09/28 04:24:45;;;;;;;87.78;81.57;;;;;;;16.11;100.00;101283.50;4963413;28;20373;-77
2021/09/28 04:27:12;;;;;;;96.03;89.20;;;;;;;16.18;100.00;101278.84;4963061;28;20055;-77
2021/09/28 04:29:39;;;;;;;103.43;96.80;;;;;;;16.16;100.00;101291.66;4964479;28;20059;-78
2021/09/28 04:32:08;;;;;;;98.78;92.35;;;;;;;16.21;100.00;101291.78;4964641;28;20055;-78
2021/09/28 04:34:35;;;;;;;85.55;79.32;;;;;;;16.22;100.00;101295.31;4965207;28;20540;-78
2021/09/28 04:37:02;;;;;;;88.85;82.53;;;;;;;16.16;100.00;101299.72;4971308;28;20121;-78
2021/09/28 04:39:28;;;;;;;87.75;81.63;;;;;;;16.23;100.00;101300.41;4962760;28;20054;-79
2021/09/28 04:41:55;;;;;;;91.03;84.40;;;;;;;16.24;100.00;101310.09;4956876;28;20051;-79
2021/09/28 04:44:22;;;;;;;89.53;83.47;;;;;;;16.26;100.00;101307.19;4964645;28;20074;-79
2021/09/28 04:46:49;;;;;;;98.18;91.47;;;;;;;16.24;100.00;101310.09;4965159;28;20051;-78
2021/09/28 04:49:17;;;;;;;104.63;97.93;;;;;;;16.20;100.00;101310.78;4965729;28;20050;-78
2021/09/28 04:51:44;;;;;;;103.00;96.75;;;;;;;16.32;100.00;101308.13;4969475;28;20526;-78
2021/09/28 04:54:11;;;;;;;86.03;80.47;;;;;;;16.32;100.00;101308.13;4965646;28;20498;-79
2021/09/28 04:56:37;;;;;;;83.70;78.30;;;;;;;16.33;100.00;101299.84;4965075;28;20055;-79
2021/09/28 04:59:04;;;;;;;79.72;73.88;;;;;;;16.39;100.00;101298.13;4965200;28;20419;-78
2021/09/28 05:01:32;;;;;;;76.38;70.90;;;;;;;16.41;100.00;101301.41;4964579;28;20066;-80
2021/09/28 05:03:58;;;;;;;82.47;77.00;;;;;;;16.39;100.00;101306.97;4964704;28;20061;-78
2021/09/28 05:06:27;;;;;;;85.18;79.30;;;;;;;16.37;100.00;101297.53;4967052;28;20490;-78
2021/09/28 05:08:53;;;;;;;90.93;85.00;;;;;;;16.47;100.00;101292.44;4967789;28;20058;-80
2021/09/28 05:11:20;;;;;;;92.65;87.13;;;;;;;16.49;100.00;101293.03;4964731;28;20047;-78
2021/09/28 05:13:47;;;;;;;84.20;78.50;;;;;;;16.45;100.00;101294.50;4965019;28;20121;-80
2021/09/28 05:16:14;;;;;;;73.00;67.38;;;;;;;16.52;100.00;101297.94;4967462;28;20065;-80
2021/09/28 05:18:40;;;;;;;70.80;65.30;;;;;;;16.58;100.00;101291.63;4964227;28;20059;-78
2021/09/28 05:21:07;;;;;;;70.20;64.65;;;;;;;16.67;100.00;101298.28;4965005;28;20469;-76
2021/09/28 05:23:35;;;;;;;65.82;60.70;;;;;;;16.78;100.00;101302.03;4967359;28;20401;-77
2021/09/28 05:26:02;;;;;;;66.45;61.13;;;;;;;16.73;100.00;101304.56;4964627;28;20055;-78
2021/09/28 05:28:29;;;;;;;64.22;59.25;;;;;;;16.69;100.00;101301.53;4963041;28;20047;-78
2021/09/28 05:30:58;;;;;;;67.70;62.40;;;;;;;16.89;100.00;101303.09;4962572;28;20051;-79
2021/09/28 05:33:24;;;;;;;66.38;61.47;;;;;;;16.91;100.00;101295.63;4963614;28;20071;-79
2021/09/28 05:35:53;;;;;;;66.95;62.10;;;;;;;17.03;100.00;101298.31;4965599;28;20051;-78
2021/09/28 05:38:20;;;;;;;65.18;60.63;;;;;;;17.03;100.00;101290.25;4971212;28;20120;-78
2021/09/28 05:40:48;;;;;;;61.97;56.95;;;;;;;17.06;100.00;101289.78;4962010;28;20043;-79
2021/09/28 05:43:15;;;;;;;65.85;61.05;;;;;;;17.16;100.00;101290.03;4962873;28;20042;-78
2021/09/28 05:45:42;;;;;;;62.35;57.05;;;;;;;17.27;100.00;101280.31;4964046;28;20129;-81
2021/09/28 05:48:08;;;;;;;58.72;53.90;;;;;;;17.33;100.00;101277.47;4963356;28;20058;-78
2021/09/28 05:50:36;;;;;;;68.82;64.22;;;;;;;17.48;100.00;101286.91;4965574;28;20121;-79
2021/09/28 05:53:07;;;;;;;66.28;61.65;;;;;;;17.45;100.00;101282.81;4957237;28;20062;-78
2021/09/28 05:55:34;;;;;;;61.53;57.25;;;;;;;17.76;100.00;101286.09;4962407;28;20117;-79
2021/09/28 05:58:03;;;;;;;54.00;49.97;;;;;;;17.75;100.00;101281.78;4963685;28;20142;-79
2021/09/28 06:00:30;;;;;;;55.00;50.83;;;;;;;17.89;100.00;101293.13;4963465;28;20055;-78
2021/09/28 06:02:57;;;;;;;55.05;50.95;;;;;;;18.14;100.00;101288.19;4963713;28;20061;-80
2021/09/28 06:05:24;;;;;;;52.45;48.35;;;;;;;18.24;100.00;101288.34;4962099;28;20511;-79
2021/09/28 06:07:51;;;;;;;53.10;49.15;;;;;;;18.21;100.00;101302.28;4970826;28;20109;-78
2021/09/28 06:10:19;;;;;;;50.75;47.03;;;;;;;18.31;100.00;101301.66;4960044;28;20059;-79
2021/09/28 06:12:45;;;;;;;50.42;46.35;;;;;;;18.57;100.00;101302.88;4963030;28;20498;-78
2021/09/28 06:15:14;;;;;;;45.22;42.17;;;;;;;18.59;100.00;101299.94;4963546;28;20050;-80
2021/09/28 06:17:41;;;;;;;45.50;41.88;;;;;;;18.56;100.00;101303.13;4970525;28;20498;-79
2021/09/28 06:20:09;;;;;;;46.20;42.05;;;;;;;18.27;100.00;101305.88;4962001;28;20060;-79
2021/09/28 06:22:36;;;;;;;46.35;42.72;;;;;;;18.23;100.00;101310.94;4964012;28;20051;-79
2021/09/28 06:25:03;;;;;;;51.25;47.15;;;;;;;18.22;100.00;101308.50;4961016;28;20058;-79
2021/09/28 06:27:30;;;;;;;48.03;43.90;;;;;;;18.24;100.00;101315.22;4963136;28;20081;-79
2021/09/28 06:29:57;;;;;;;48.10;43.97;;;;;;;18.63;100.00;101309.97;4961810;28;20066;-78
2021/09/28 06:32:25;;;;;;;43.45;39.95;;;;;;;18.78;100.00;101314.81;4962380;28;20051;-79
2021/09/28 06:34:52;;;;;;;41.15;37.90;;;;;;;18.79;100.00;101313.75;4963571;28;20456;-78
2021/09/28 06:37:19;;;;;;;39.97;37.08;;;;;;;18.90;100.00;101312.81;4972379;28;20059;-79
2021/09/28 06:39:46;;;;;;;43.55;39.72;;;;;;;19.24;100.00;101315.44;4961665;28;20051;-81
2021/09/28 06:42:12;;;;;;;40.72;37.60;;;;;;;19.11;100.00;101323.91;4961804;28;20047;-79
2021/09/28 06:44:39;;;;;;;41.00;37.88;;;;;;;19.34;100.00;101318.28;4962723;28;20524;-79
2021/09/28 06:47:06;;;;;;;38.72;35.47;;;;;;;19.30;100.00;101319.03;4963339;28;20106;-77
2021/09/28 06:49:34;;;;;;;38.40;35.13;;;;;;;19.31;100.00;101321.50;4963331;28;20381;-79
2021/09/28 06:52:01;;;;;;;37.35;34.65;;;;;;;19.32;100.00;101327.69;4969065;28;20054;-79
2021/09/28 06:54:28;;;;;;;38.78;35.88;;;;;;;19.38;100.00;101321.28;4960758;28;20404;-80
2021/09/28 06:56:54;;;;;;;43.35;40.00;;;;;;;19.60;100.00;101326.69;4959173;28;20092;-79
2021/09/28 06:59:21;;;;;;;43.00;39.60;;;;;;;19.63;100.00;101326.19;4963580;28;20055;-79
2021/09/28 07:01:48;;;;;;;41.45;38.25;;;;;;;20.00;100.00;101322.84;4962913;28;20563;-79
2021/09/28 07:04:15;;;;;;;44.97;41.80;;;;;;;20.08;100.00;101328.59;4963065;28;20047;-77
2021/09/28 07:06:43;;;;;;;38.95;35.60;;;;;;;20.86;100.00;101330.91;4966958;28;20461;-78
2021/09/28 07:09:09;;;;;;;35.55;33.00;;;;;;;20.64;100.00;101330.22;4964227;28;20055;-79
2021/09/28 07:11:37;;;;;;;38.60;35.33;;;;;;;20.66;100.00;101325.34;4963456;28;20130;-80
2021/09/28 07:14:03;;;;;;;37.95;35.03;;;;;;;20.49;100.00;101339.78;4962894;28;20479;-79
2021/09/28 07:16:30;;;;;;;38.13;35.35;;;;;;;20.40;100.00;101337.81;4968138;28;20471;-80
2021/09/28 07:18:57;;;;;;;40.30;36.55;;;;;;;20.38;100.00;101338.03;4961203;28;20052;-79
2021/09/28 07:21:24;;;;;;;44.58;40.35;;;;;;;20.08;100.00;101339.38;4962381;28;20058;-81
2021/09/28 07:23:52;;;;;;;39.13;35.83;;;;;;;20.20;100.00;101349.19;4966244;28;20051;-80
2021/09/28 07:26:19;;;;;;;40.00;36.72;;;;;;;20.11;100.00;101346.94;4964084;28;20479;-78
2021/09/28 07:28:46;;;;;;;47.83;43.20;;;;;;;20.26;100.00;101342.78;4964114;28;20050;-81
2021/09/28 07:31:13;;;;;;;40.38;36.90;;;;;;;20.17;100.00;101355.09;4962314;28;20048;-79
2021/09/28 07:33:39;;;;;;;40.00;36.38;;;;;;;20.32;100.00;101356.06;4961531;28;20047;-78
2021/09/28 07:36:07;;;;;;;38.65;35.85;;;;;;;20.59;100.00;101347.16;4965931;28;20133;-80
2021/09/28 07:38:35;;;;;;;38.20;34.95;;;;;;;20.52;100.00;101357.38;4969180;28;20082;-79
2021/09/28 07:41:03;;;;;;;37.50;34.42;;;;;;;20.31;100.00;101364.41;4963522;28;20054;-77
2021/09/28 07:43:30;;;;;;;38.45;35.33;;;;;;;20.35;100.00;101344.75;4961929;28;20121;-78
2021/09/28 07:45:59;;;;;;;37.22;34.53;;;;;;;20.25;100.00;101363.56;4962189;28;20526;-78
2021/09/28 07:48:26;;;;;;;42.28;38.95;;;;;;;20.49;100.00;101355.97;4962702;28;20110;-78
2021/09/28 07:50:53;;;;;;;36.58;33.85;;;;;;;20.53;100.00;101346.28;4965372;28;20141;-80
2021/09/28 07:53:20;;;;;;;36.20;33.25;;;;;;;21.09;100.00;101356.72;4970258;28;20086;-79
2021/09/28 07:55:48;;;;;;;35.60;32.92;;;;;;;21.17;100.00;101347.28;4961770;28;20118;-79
2021/09/28 07:58:16;;;;;;;36.35;33.88;;;;;;;20.96;100.00;101343.66;4961808;28;20069;-78
2021/09/28 08:00:43;;;;;;;33.13;30.40;;;;;;;21.06;100.00;101354.53;4963003;28;20118;-78
2021/09/28 08:03:10;;;;;;;36.17;33.42;;;;;;;21.28;100.00;101351.69;4962151;28;20067;-80
2021/09/28 08:05:37;;;;;;;34.63;32.25;;;;;;;21.48;100.00;101353.69;4966212;28;20055;-80
2021/09/28 08:08:04;;;;;;;36.65;33.72;;;;;;;21.71;100.00;101352.44;4967168;28;20048;-80
2021/09/28 08:10:32;;;;;;;38.95;35.72;;;;;;;22.17;100.00;101350.69;4967651;28;20059;-78
2021/09/28 08:13:03;;;;;;;32.72;29.77;;;;;;;22.31;100.00;101345.56;4967624;28;20725;-79
2021/09/28 08:15:31;;;;;;;32.80;30.02;;;;;;;21.91;100.00;101349.81;4967101;28;20058;-79
2021/09/28 08:17:58;;;;;;;32.47;30.17;;;;;;;22.08;100.00;101354.16;4966700;28;20407;-79
2021/09/28 08:20:25;;;;;;;32.92;30.52;;;;;;;22.43;100.00;101356.13;4961563;28;20058;-78
2021/09/28 08:22:51;;;;;;;33.88;31.60;;;;;;;22.30;100.00;101357.50;4965224;28;20043;-80
2021/09/28 08:25:21;;;;;;;32.80;30.20;;;;;;;22.64;100.00;101343.44;4966681;28;20054;-78
2021/09/28 08:30:33;;;;;;;34.65;32.17;;;;;;;22.56;100.00;101347.47;4964877;28;20057;-79
2021/09/28 08:33:00;;;;;;;33.42;31.33;;;;;;;22.89;100.00;101344.47;4966483;28;20058;-79
2021/09/28 08:35:26;;;;;;;33.70;31.35;;;;;;;22.84;100.00;101348.00;4964945;28;20459;-80
2021/09/28 08:37:53;;;;;;;33.88;31.60;;;;;;;22.38;100.00;101348.00;4973608;28;20110;-77
2021/09/28 08:40:20;;;;;;;33.13;30.92;;;;;;;22.51;100.00;101341.25;4962340;28;20055;-79
2021/09/28 08:42:47;;;;;;;35.03;32.20;;;;;;;22.12;100.00;101344.44;4965040;28;20090;-79
2021/09/28 08:45:14;;;;;;;33.75;31.45;;;;;;;22.17;100.00;101342.56;4966050;28;20055;-78
2021/09/28 08:47:43;;;;;;;32.40;29.98;;;;;;;22.21;100.00;101337.47;4964239;28;20152;-78
2021/09/28 08:50:14;;;;;;;32.95;30.63;;;;;;;22.33;100.00;101343.41;4964148;28;20110;-77
2021/09/28 08:52:42;;;;;;;34.08;31.52;;;;;;;22.10;100.00;101343.91;4974680;28;20078;-79
2021/09/28 08:55:10;;;;;;;32.25;29.85;;;;;;;21.80;100.00;101337.31;4964829;28;20479;-79
2021/09/28 08:57:38;;;;;;;33.17;30.65;;;;;;;21.75;100.00;101342.72;4967434;28;20051;-79
2021/09/28 09:00:21;;;;;;;31.85;29.65;;;;;;;21.91;100.00;101341.69;4963831;28;20455;-80
2021/09/28 09:02:50;;;;;;;35.08;32.65;;;;;;;22.15;100.00;101346.63;4964460;28;20436;-78
2021/09/28 09:05:17;;;;;;;33.65;31.15;;;;;;;22.23;100.00;101350.69;4963893;28;20476;-81
2021/09/28 09:07:47;;;;;;;32.08;29.83;;;;;;;21.91;100.00;101343.59;4974086;28;20051;-78
2021/09/28 09:10:26;;;;;;;32.63;30.45;;;;;;;21.91;100.00;101339.00;4965738;28;20160;-78
2021/09/28 09:12:53;;;;;;;32.78;30.23;;;;;;;21.66;100.00;101344.31;4964514;28;20047;-79
2021/09/28 09:15:23;;;;;;;35.03;32.20;;;;;;;21.87;100.00;101343.28;4964817;28;20059;-79
2021/09/28 09:17:52;;;;;;;34.78;32.17;;;;;;;21.87;100.00;101346.00;4972072;28;20048;-78
2021/09/28 09:20:33;;;;;;;34.72;31.95;;;;;;;21.65;100.00;101339.97;4956269;28;20062;-79
2021/09/28 09:23:16;;;;;;;33.67;31.38;;;;;;;21.55;100.00;101342.66;4956147;28;20138;-80
2021/09/28 09:25:43;;;;;;;32.75;30.13;;;;;;;21.54;100.00;101343.72;4963516;28;20062;-80
2021/09/28 09:28:21;;;;;;;32.25;30.08;;;;;;;21.52;100.00;101346.69;4963962;28;20426;-80
2021/09/28 09:30:48;;;;;;;32.22;29.58;;;;;;;21.62;100.00;101337.81;4962952;28;20114;-79
2021/09/28 09:33:24;;;;;;;33.92;31.52;;;;;;;21.51;100.00;101350.44;4965205;28;20050;-79
2021/09/28 09:35:58;;;;;;;34.65;32.08;;;;;;;21.55;100.00;101345.38;4965634;28;20117;-79
2021/09/28 09:38:25;;;;;;;34.20;31.55;;;;;;;21.63;100.00;101352.94;4972303;28;20184;-78
2021/09/28 09:40:52;;;;;;;33.47;31.27;;;;;;;21.52;100.00;101351.28;4955342;28;20055;-79
2021/09/28 09:43:30;;;;;;;34.42;31.80;;;;;;;21.76;100.00;101351.66;4963437;28;20180;-83
2021/09/28 09:46:10;;;;;;;34.28;31.80;;;;;;;21.54;100.00;101357.22;4963533;28;20051;-80
2021/09/28 09:48:41;;;;;;;35.00;32.53;;;;;;;21.53;100.00;101353.72;4963274;28;20661;-79
2021/09/28 09:51:10;;;;;;;36.08;33.55;;;;;;;21.60;100.00;101362.38;4967321;28;20046;-80
2021/09/28 09:53:49;;;;;;;37.15;34.58;;;;;;;21.44;100.00;101366.09;4970272;28;20075;-80
2021/09/28 09:56:15;;;;;;;35.90;33.10;;;;;;;21.48;100.00;101369.91;4965797;28;20142;-78
2021/09/28 09:58:42;;;;;;;35.35;32.67;;;;;;;21.63;100.00;101363.75;4964561;28;20471;-78
2021/09/28 10:01:09;;;;;;;35.15;32.50;;;;;;;21.70;100.00;101370.56;4962616;28;20059;-79
2021/09/28 10:03:38;;;;;;;34.05;31.52;;;;;;;21.71;100.00;101372.16;4962801;28;20055;-79
2021/09/28 10:06:07;;;;;;;33.85;31.15;;;;;;;22.04;100.00;101369.31;4966617;28;20054;-80
2021/09/28 10:08:34;;;;;;;32.92;30.33;;;;;;;21.82;100.00;101378.44;4970322;28;20443;-83
2021/09/28 10:11:02;;;;;;;34.03;31.42;;;;;;;21.78;100.00;101376.50;4964392;28;20066;-79
2021/09/28 10:13:52;;;;;;;32.50;30.00;;;;;;;21.84;100.00;101373.56;4965480;28;20377;-80
2021/09/28 10:16:44;;;;;;;33.13;30.40;;;;;;;21.55;100.00;101381.31;4966581;28;20145;-80
2021/09/28 10:19:40;;;;;;;38.70;35.83;;;;;;;21.78;100.00;101384.63;4944205;28;20055;-78
2021/09/28 10:22:28;;;;;;;36.80;34.10;;;;;;;21.37;100.00;101381.75;4964988;28;20070;-78
2021/09/28 10:25:31;;;;;;;36.97;34.28;;;;;;;21.51;100.00;101382.88;4965483;28;20063;-78
2021/09/28 10:28:28;;;;;;;35.00;32.42;;;;;;;21.56;100.00;101382.09;4964291;28;20082;-78
2021/09/28 10:30:55;;;;;;;36.22;33.53;;;;;;;21.44;100.00;101390.44;4962575;28;20105;-79
2021/09/28 10:33:27;;;;;;;34.25;31.50;;;;;;;21.45;100.00;101389.34;4963855;28;20054;-76
2021/09/28 10:35:55;;;;;;;35.53;32.88;;;;;;;21.37;100.00;101387.16;4965914;28;20047;-79
2021/09/28 10:38:45;;;;;;;33.80;31.42;;;;;;;21.31;100.00;101386.28;4970943;28;20051;-79
2021/09/28 10:41:35;;;;;;;36.63;33.97;;;;;;;21.33;100.00;101386.00;4958625;28;20476;-79
2021/09/28 10:44:44;;;;;;;37.60;34.90;;;;;;;21.26;100.00;101388.94;4964557;28;20050;-78
2021/09/28 10:47:45;;;;;;;37.75;34.90;;;;;;;21.22;100.00;101391.34;4962710;28;20062;-78
2021/09/28 10:50:17;;;;;;;36.35;33.90;;;;;;;21.24;100.00;101382.97;4958434;28;20138;-78
2021/09/28 10:52:44;;;;;;;;;;;;;;;21.20;100.00;101384.59;4972481;28;20403;-79
2021/09/28 10:55:39;;;;;;;33.45;30.80;;;;;;;21.16;100.00;101384.28;4962887;28;19922;-79
2021/09/28 10:58:17;;;;;;;37.35;34.72;;;;;;;21.25;100.00;101384.63;4960766;28;20142;-77
2021/09/28 11:01:14;;;;;;;37.90;35.05;;;;;;;21.18;100.00;101392.97;4960517;28;20063;-78
2021/09/28 11:03:51;;;;;;;34.65;32.13;;;;;;;21.00;100.00;101387.97;4963748;28;20190;-79
2021/09/28 11:06:39;;;;;;;36.75;33.72;;;;;;;21.08;100.00;101383.97;4966148;28;20147;-80
2021/09/28 11:09:06;;;;;;;32.58;29.67;;;;;;;21.11;100.00;101384.25;4965057;28;20059;-82
2021/09/28 11:11:33;;;;;;;32.72;30.42;;;;;;;21.11;100.00;101388.84;4964201;28;20054;-78